createdAt,value
2017-12-14T00:01:35.561Z,0.98
2017-12-14T00:04:03.791Z,0.50
2017-12-14T00:06:32.073Z,0.60
2017-12-14T00:09:00.323Z,1.00
2017-12-14T00:11:28.632Z,0.57
2017-12-14T00:13:56.901Z,0.50
2017-12-14T00:16:25.158Z,0.60
2017-12-14T00:18:53.436Z,0.50
2017-12-14T00:21:21.746Z,0.50
2017-12-14T00:23:50.043Z,0.97
2017-12-14T00:26:18.316Z,0.80
2017-12-14T00:28:46.591Z,0.70
2017-12-14T00:31:14.846Z,1.00
2017-12-14T00:33:43.116Z,0.80
2017-12-14T00:36:11.414Z,0.70
2017-12-14T00:38:40.227Z,1.10
2017-12-14T00:41:08.521Z,1.10
2017-12-14T00:43:36.780Z,1.10
2017-12-14T00:46:05.076Z,0.80
2017-12-14T00:48:33.333Z,0.93
2017-12-14T00:51:01.616Z,1.10
2017-12-14T00:53:29.916Z,1.10
2017-12-14T00:55:58.213Z,1.00
2017-12-14T00:58:26.463Z,1.27
2017-12-14T01:00:54.760Z,0.87
2017-12-14T01:03:23.044Z,0.87
2017-12-14T01:05:51.295Z,1.73
2017-12-14T01:08:19.615Z,0.82
2017-12-14T01:10:47.855Z,0.88
2017-12-14T01:13:16.167Z,0.90
2017-12-14T01:15:44.438Z,0.90
2017-12-14T01:18:12.727Z,1.17
2017-12-14T01:20:40.983Z,1.33
2017-12-14T01:23:09.280Z,0.90
2017-12-14T01:25:37.543Z,0.80
2017-12-14T01:28:05.811Z,0.90
2017-12-14T01:30:34.077Z,0.63
2017-12-14T01:33:02.353Z,1.12
2017-12-14T01:35:30.607Z,0.90
2017-12-14T01:37:58.881Z,0.97
2017-12-14T01:40:27.988Z,1.20
2017-12-14T01:42:56.281Z,1.57
2017-12-14T01:45:24.546Z,1.13
2017-12-14T01:47:52.806Z,1.30
2017-12-14T01:50:21.099Z,1.30
2017-12-14T01:52:49.378Z,1.50
2017-12-14T01:55:17.769Z,1.30
2017-12-14T01:57:46.014Z,1.20
2017-12-14T02:00:14.413Z,1.50
2017-12-14T02:02:42.690Z,1.60
2017-12-14T02:05:10.963Z,1.10
2017-12-14T02:07:39.227Z,1.50
2017-12-14T02:10:07.520Z,1.40
2017-12-14T02:12:35.796Z,0.93
2017-12-14T02:15:04.076Z,1.50
2017-12-14T02:17:32.347Z,1.70
2017-12-14T02:20:00.631Z,1.53
2017-12-14T02:22:28.888Z,1.20
2017-12-14T02:24:57.203Z,1.60
2017-12-14T02:27:25.458Z,1.07
2017-12-14T02:29:53.711Z,1.03
2017-12-14T02:32:22.013Z,1.25
2017-12-14T02:34:50.279Z,1.20
2017-12-14T02:37:18.587Z,0.97
2017-12-14T02:39:46.846Z,1.20
2017-12-14T02:42:15.133Z,1.00
2017-12-14T02:44:43.388Z,1.00
2017-12-14T02:47:11.675Z,1.17
2017-12-14T02:49:39.935Z,0.73
2017-12-14T02:52:08.228Z,1.30
2017-12-14T02:54:36.486Z,0.80
2017-12-14T02:57:04.784Z,1.67
2017-12-14T02:59:33.038Z,1.50
2017-12-14T03:02:01.307Z,1.17
2017-12-14T03:04:29.587Z,1.07
2017-12-14T03:06:58.166Z,1.50
2017-12-14T03:09:26.451Z,1.60
2017-12-14T03:11:54.719Z,0.70
2017-12-14T03:14:23.005Z,0.70
2017-12-14T03:16:51.285Z,0.60
2017-12-14T03:19:19.588Z,0.50
2017-12-14T03:21:47.850Z,0.53
2017-12-14T03:24:16.130Z,0.60
2017-12-14T03:26:44.459Z,0.60
2017-12-14T03:29:12.758Z,0.50
2017-12-14T03:31:41.036Z,0.60
2017-12-14T03:34:09.306Z,0.50
2017-12-14T03:36:37.588Z,0.63
2017-12-14T03:39:05.867Z,0.80
2017-12-14T03:41:34.140Z,0.50
2017-12-14T03:44:02.426Z,0.70
2017-12-14T03:46:30.696Z,0.70
2017-12-14T03:48:58.970Z,0.70
2017-12-14T03:51:27.253Z,0.70
2017-12-14T03:53:55.527Z,0.90
2017-12-14T03:56:23.808Z,0.60
2017-12-14T03:58:52.120Z,0.73
2017-12-14T04:01:20.375Z,0.60
2017-12-14T04:03:48.663Z,0.57
2017-12-14T04:06:17.459Z,0.70
2017-12-14T04:08:45.718Z,0.60
2017-12-14T04:11:13.976Z,0.52
2017-12-14T04:13:42.239Z,0.80
2017-12-14T04:16:10.499Z,0.82
2017-12-14T04:18:38.798Z,0.70
2017-12-14T04:21:07.063Z,1.17
2017-12-14T04:23:35.312Z,0.90
2017-12-14T04:26:03.628Z,0.60
2017-12-14T04:28:31.891Z,0.70
2017-12-14T04:31:00.180Z,0.70
2017-12-14T04:33:28.431Z,0.77
2017-12-14T04:35:56.740Z,1.03
2017-12-14T04:38:25.007Z,0.70
2017-12-14T04:40:53.282Z,0.80
2017-12-14T04:43:21.572Z,1.57
2017-12-14T04:45:49.847Z,0.70
2017-12-14T04:48:18.103Z,1.13
2017-12-14T04:50:46.388Z,0.90
2017-12-14T04:53:15.588Z,1.08
2017-12-14T04:55:43.860Z,1.57
2017-12-14T04:58:12.159Z,1.17
2017-12-14T05:00:40.414Z,1.17
2017-12-14T05:03:08.691Z,0.90
2017-12-14T05:05:36.966Z,0.80
2017-12-14T05:08:06.299Z,0.80
2017-12-14T05:10:34.570Z,0.90
2017-12-14T05:13:02.847Z,1.00
2017-12-14T05:15:31.112Z,0.70
2017-12-14T05:18:00.439Z,0.77
2017-12-14T05:20:28.715Z,0.93
2017-12-14T05:22:56.992Z,1.37
2017-12-14T05:25:25.243Z,1.20
2017-12-14T05:27:53.494Z,1.20
2017-12-14T05:30:21.775Z,2.10
2017-12-14T05:32:50.047Z,1.20
2017-12-14T05:35:18.331Z,1.00
2017-12-14T05:37:46.607Z,0.97
2017-12-14T05:40:14.914Z,0.98
2017-12-14T05:42:43.155Z,1.20
2017-12-14T05:45:11.431Z,1.20
2017-12-14T05:47:40.531Z,1.20
2017-12-14T05:50:08.859Z,1.00
2017-12-14T05:52:37.103Z,1.40
2017-12-14T05:55:05.375Z,2.17
2017-12-14T05:57:33.647Z,1.43
2017-12-14T06:00:01.922Z,1.30
2017-12-14T06:02:30.245Z,1.37
2017-12-14T06:04:58.767Z,1.30
2017-12-14T06:07:27.073Z,1.00
2017-12-14T06:09:55.309Z,1.63
2017-12-14T06:12:23.680Z,1.30
2017-12-14T06:14:52.012Z,1.40
2017-12-14T06:17:20.266Z,1.20
2017-12-14T06:19:48.532Z,1.15
2017-12-14T06:22:16.817Z,1.40
2017-12-14T06:24:45.214Z,1.50
2017-12-14T06:27:13.536Z,1.20
2017-12-14T06:29:42.024Z,1.17
2017-12-14T06:32:10.282Z,1.23
2017-12-14T06:34:38.619Z,1.60
2017-12-14T06:37:06.884Z,1.67
2017-12-14T06:39:36.287Z,1.20
2017-12-14T06:42:05.115Z,1.83
2017-12-14T06:44:33.453Z,1.90
2017-12-14T06:47:01.728Z,1.37
2017-12-14T06:49:30.047Z,1.40
2017-12-14T06:51:58.352Z,1.20
2017-12-14T06:54:26.682Z,1.83
2017-12-14T06:56:55.032Z,1.50
2017-12-14T06:59:23.616Z,1.25
2017-12-14T07:01:51.881Z,1.67
2017-12-14T07:04:20.169Z,1.50
2017-12-14T07:06:48.463Z,2.13
2017-12-14T07:09:16.785Z,1.87
2017-12-14T07:11:45.116Z,1.30
2017-12-14T07:14:13.354Z,0.97
2017-12-14T07:16:41.632Z,1.47
2017-12-14T07:19:09.916Z,1.25
2017-12-14T07:21:38.178Z,1.00
2017-12-14T07:24:06.525Z,1.53
2017-12-14T07:26:34.814Z,1.47
2017-12-14T07:29:03.159Z,1.63
2017-12-14T07:31:31.450Z,1.85
2017-12-14T07:33:59.891Z,2.17
2017-12-14T07:36:28.137Z,1.93
2017-12-14T07:38:56.394Z,1.47
2017-12-14T07:41:24.731Z,2.93
2017-12-14T07:44:04.747Z,1.73
2017-12-14T07:46:35.458Z,1.57
2017-12-14T07:49:15.364Z,1.47
2017-12-14T07:51:43.639Z,2.63
2017-12-14T07:54:12.082Z,1.30
2017-12-14T07:56:40.407Z,1.80
2017-12-14T07:59:08.682Z,1.80
2017-12-14T08:01:37.052Z,1.37
2017-12-14T08:04:05.355Z,1.50
2017-12-14T08:06:33.647Z,2.10
2017-12-14T08:09:01.947Z,2.00
2017-12-14T08:11:30.243Z,1.60
2017-12-14T08:13:58.506Z,1.90
2017-12-14T08:16:26.828Z,1.60
2017-12-14T08:18:55.160Z,2.07
2017-12-14T08:21:23.404Z,1.73
2017-12-14T08:23:51.700Z,2.10
2017-12-14T08:26:19.955Z,1.27
2017-12-14T08:28:48.263Z,1.83
2017-12-14T08:31:16.544Z,2.28
2017-12-14T08:33:44.833Z,1.60
2017-12-14T08:36:13.091Z,2.78
2017-12-14T08:38:41.391Z,2.08
2017-12-14T08:41:09.850Z,2.58
2017-12-14T08:43:38.144Z,2.35
2017-12-14T08:46:06.401Z,1.60
2017-12-14T08:48:34.680Z,2.30
2017-12-14T08:51:03.831Z,1.53
2017-12-14T08:53:32.168Z,2.03
2017-12-14T08:56:00.430Z,1.83
2017-12-14T08:58:28.771Z,2.33
2017-12-14T09:00:57.020Z,2.30
2017-12-14T09:03:25.279Z,1.23
2017-12-14T09:05:53.551Z,1.83
2017-12-14T09:08:21.808Z,2.90
2017-12-14T09:10:50.084Z,2.20
2017-12-14T09:13:18.369Z,1.97
2017-12-14T09:15:46.658Z,1.97
2017-12-14T09:18:14.911Z,1.62
2017-12-14T09:20:43.257Z,2.17
2017-12-14T09:23:11.520Z,2.42
2017-12-14T09:25:39.832Z,2.03
2017-12-14T09:28:08.212Z,1.93
2017-12-14T09:30:36.468Z,2.00
2017-12-14T09:33:04.875Z,2.03
2017-12-14T09:35:33.172Z,1.40
2017-12-14T09:38:01.423Z,1.40
2017-12-14T09:40:29.716Z,1.53
2017-12-14T09:42:58.119Z,2.50
2017-12-14T09:45:26.345Z,1.73
2017-12-14T09:47:54.620Z,1.83
2017-12-14T09:50:22.885Z,1.90
2017-12-14T09:52:51.224Z,2.07
2017-12-14T09:55:19.519Z,1.92
2017-12-14T09:57:47.826Z,2.03
2017-12-14T10:00:16.102Z,2.00
2017-12-14T10:02:44.387Z,2.17
2017-12-14T10:05:12.654Z,3.75
2017-12-14T10:07:40.942Z,2.40
2017-12-14T10:10:09.215Z,1.70
2017-12-14T10:12:37.487Z,2.67
2017-12-14T10:15:05.774Z,2.37
2017-12-14T10:17:34.067Z,2.00
2017-12-14T10:20:03.033Z,3.03
2017-12-14T10:22:31.322Z,2.20
2017-12-14T10:24:59.604Z,2.70
2017-12-14T10:27:27.865Z,2.73
2017-12-14T10:29:56.136Z,2.17
2017-12-14T10:32:24.411Z,3.10
2017-12-14T10:34:52.699Z,2.20
2017-12-14T10:37:21.004Z,1.77
2017-12-14T10:39:49.342Z,2.17
2017-12-14T10:42:17.618Z,2.83
2017-12-14T10:44:45.973Z,2.50
2017-12-14T10:47:14.236Z,2.75
2017-12-14T10:49:42.543Z,1.70
2017-12-14T10:52:10.829Z,3.30
2017-12-14T10:54:39.142Z,3.13
2017-12-14T10:57:07.882Z,2.30
2017-12-14T10:59:36.948Z,2.10
2017-12-14T11:02:05.891Z,2.63
2017-12-14T11:04:34.152Z,2.27
2017-12-14T11:07:02.833Z,2.73
2017-12-14T11:09:31.264Z,2.47
2017-12-14T11:11:59.593Z,4.70
2017-12-14T11:14:27.862Z,3.17
2017-12-14T11:16:56.147Z,2.75
2017-12-14T11:19:24.418Z,2.63
2017-12-14T11:21:52.742Z,2.30
2017-12-14T11:24:21.011Z,2.37
2017-12-14T11:26:49.262Z,3.30
2017-12-14T11:29:17.636Z,3.20
2017-12-14T11:31:45.912Z,2.30
2017-12-14T11:34:14.443Z,2.53
2017-12-14T11:36:42.698Z,3.50
2017-12-14T11:39:11.037Z,2.23
2017-12-14T11:41:39.300Z,2.90
2017-12-14T11:44:07.608Z,2.17
2017-12-14T11:46:35.993Z,2.70
2017-12-14T11:49:05.186Z,2.65
2017-12-14T11:51:33.450Z,1.93
2017-12-14T11:54:01.922Z,2.10
2017-12-14T11:56:30.165Z,2.47
2017-12-14T11:58:59.351Z,2.53
2017-12-14T12:01:27.750Z,2.23
2017-12-14T12:03:56.107Z,3.23
2017-12-14T12:06:24.554Z,2.83
2017-12-14T12:08:52.948Z,2.27
2017-12-14T12:11:21.470Z,2.70
2017-12-14T12:13:49.748Z,1.80
2017-12-14T12:16:18.147Z,2.20
2017-12-14T12:18:46.431Z,2.15
2017-12-14T12:21:14.759Z,3.80
2017-12-14T12:23:43.042Z,1.90
2017-12-14T12:26:12.799Z,2.87
2017-12-14T12:28:42.215Z,2.50
2017-12-14T12:31:10.486Z,3.22
2017-12-14T12:33:39.272Z,2.90
2017-12-14T12:36:07.543Z,1.90
2017-12-14T12:38:35.837Z,3.00
2017-12-14T12:41:04.090Z,3.85
2017-12-14T12:43:32.426Z,3.67
2017-12-14T12:46:00.793Z,2.50
2017-12-14T12:48:29.320Z,2.53
2017-12-14T12:50:57.594Z,2.70
2017-12-14T12:53:25.958Z,3.30
2017-12-14T12:55:54.216Z,2.80
2017-12-14T12:58:22.505Z,2.30
2017-12-14T13:00:51.455Z,3.07
2017-12-14T13:03:19.801Z,5.57
2017-12-14T13:05:48.071Z,2.00
2017-12-14T13:08:16.342Z,2.83
2017-12-14T13:10:44.655Z,2.50
2017-12-14T13:13:12.999Z,2.92
2017-12-14T13:15:41.338Z,3.07
2017-12-14T13:18:09.659Z,3.72
2017-12-14T13:20:37.936Z,3.20
2017-12-14T13:23:06.213Z,3.27
2017-12-14T13:25:34.488Z,3.43
2017-12-14T13:28:02.795Z,3.50
2017-12-14T13:30:31.050Z,3.35
2017-12-14T13:32:59.344Z,3.47
2017-12-14T13:35:27.604Z,6.87
2017-12-14T13:37:55.881Z,3.57
2017-12-14T13:40:24.163Z,3.13
2017-12-14T13:42:52.919Z,2.23
2017-12-14T13:45:21.254Z,2.60
2017-12-14T13:47:49.531Z,2.40
2017-12-14T13:50:17.927Z,2.87
2017-12-14T13:52:46.167Z,3.73
2017-12-14T13:55:14.523Z,3.47
2017-12-14T13:57:42.820Z,2.50
2017-12-14T14:00:11.076Z,3.60
2017-12-14T14:02:39.429Z,3.60
2017-12-14T14:05:07.699Z,3.23
2017-12-14T14:07:36.032Z,2.20
2017-12-14T14:10:04.400Z,3.55
2017-12-14T14:12:32.662Z,2.97
2017-12-14T14:15:00.944Z,2.80
2017-12-14T14:17:29.214Z,4.00
2017-12-14T14:19:57.501Z,3.28
2017-12-14T14:22:25.766Z,2.30
2017-12-14T14:24:54.059Z,3.53
2017-12-14T14:27:22.327Z,2.57
2017-12-14T14:29:50.813Z,2.83
2017-12-14T14:32:19.098Z,4.13
2017-12-14T14:34:47.355Z,2.00
2017-12-14T14:37:15.669Z,2.37
2017-12-14T14:39:44.096Z,2.20
2017-12-14T14:42:12.367Z,2.35
2017-12-14T14:44:40.662Z,3.25
2017-12-14T14:47:08.971Z,2.90
2017-12-14T14:49:37.228Z,2.60
2017-12-14T14:52:05.692Z,2.57
2017-12-14T14:54:33.967Z,2.90
2017-12-14T14:57:02.269Z,2.90
2017-12-14T14:59:30.564Z,1.67
2017-12-14T15:01:58.865Z,2.53
2017-12-14T15:04:27.144Z,2.93
2017-12-14T15:06:55.440Z,3.33
2017-12-14T15:09:23.710Z,2.10
2017-12-14T15:11:52.025Z,2.87
2017-12-14T15:14:20.274Z,3.60
2017-12-14T15:16:48.596Z,3.13
2017-12-14T15:19:16.874Z,2.97
2017-12-14T15:21:45.170Z,3.00
2017-12-14T15:24:13.467Z,3.77
2017-12-14T15:26:41.743Z,3.57
2017-12-14T15:29:10.126Z,4.35
2017-12-14T15:31:38.415Z,3.20
2017-12-14T15:34:06.779Z,2.70
2017-12-14T15:36:35.067Z,2.73
2017-12-14T15:39:04.174Z,2.20
2017-12-14T15:41:32.525Z,2.80
2017-12-14T15:44:00.782Z,4.87
2017-12-14T15:46:29.047Z,2.70
2017-12-14T15:48:58.279Z,3.00
2017-12-14T15:51:26.539Z,2.70
2017-12-14T15:53:54.841Z,2.63
2017-12-14T15:56:23.123Z,2.87
2017-12-14T15:58:51.484Z,3.17
2017-12-14T16:01:19.731Z,2.90
2017-12-14T16:03:48.021Z,2.60
2017-12-14T16:06:16.307Z,3.43
2017-12-14T16:08:44.555Z,3.40
2017-12-14T16:11:12.875Z,2.03
2017-12-14T16:13:42.031Z,4.10
2017-12-14T16:16:10.391Z,2.83
2017-12-14T16:18:38.625Z,2.50
2017-12-14T16:21:06.935Z,2.55
2017-12-14T16:23:35.198Z,1.83
2017-12-14T16:26:04.343Z,1.90
2017-12-14T16:28:32.888Z,1.53
2017-12-14T16:31:01.147Z,2.07
2017-12-14T16:33:29.453Z,2.03
2017-12-14T16:35:57.721Z,0.87
2017-12-14T16:38:26.375Z,1.73
2017-12-14T16:40:54.636Z,1.10
2017-12-14T16:43:22.926Z,1.00
2017-12-14T16:45:51.189Z,1.27
2017-12-14T16:48:19.463Z,0.95
2017-12-14T16:50:48.527Z,1.00
2017-12-14T16:53:16.848Z,0.70
2017-12-14T16:55:45.123Z,0.90
2017-12-14T16:58:13.468Z,0.82
2017-12-14T17:00:42.252Z,1.30
2017-12-14T17:03:10.500Z,1.70
2017-12-14T17:05:38.913Z,1.70
2017-12-14T17:08:07.557Z,1.00
2017-12-14T17:10:35.860Z,1.30
2017-12-14T17:13:04.188Z,1.37
2017-12-14T17:15:32.448Z,2.10
2017-12-14T17:18:00.789Z,2.40
2017-12-14T17:20:29.095Z,2.07
2017-12-14T17:22:57.361Z,2.10
2017-12-14T17:25:27.003Z,1.83
2017-12-14T17:27:55.233Z,3.70
2017-12-14T17:30:23.550Z,2.10
2017-12-14T17:32:51.822Z,1.60
2017-12-14T17:35:20.198Z,8.50
2017-12-14T17:37:48.515Z,2.13
2017-12-14T17:40:16.798Z,1.83
2017-12-14T17:42:45.123Z,1.37
2017-12-14T17:45:13.418Z,1.43
2017-12-14T17:47:41.711Z,1.20
2017-12-14T17:50:10.099Z,1.33
2017-12-14T17:52:38.353Z,1.10
2017-12-14T17:55:06.627Z,1.00
2017-12-14T17:57:34.935Z,1.03
2017-12-14T18:00:03.209Z,2.13
2017-12-14T18:02:31.505Z,1.40
2017-12-14T18:04:59.806Z,1.10
2017-12-14T18:07:28.131Z,1.30
2017-12-14T18:09:56.458Z,2.77
2017-12-14T18:12:24.742Z,2.50
2017-12-14T18:14:53.049Z,2.50
2017-12-14T18:17:21.325Z,1.60
2017-12-14T18:19:49.574Z,1.10
2017-12-14T18:22:17.868Z,1.17
2017-12-14T18:24:46.253Z,1.10
2017-12-14T18:27:14.511Z,1.50
2017-12-14T18:29:43.204Z,1.40
2017-12-14T18:32:11.467Z,1.40
2017-12-14T18:34:40.485Z,1.00
2017-12-14T18:37:09.053Z,1.50
2017-12-14T18:39:37.332Z,1.60
2017-12-14T18:42:10.648Z,1.47
2017-12-14T18:44:38.997Z,1.13
2017-12-14T18:47:07.283Z,0.93
2017-12-14T18:49:35.556Z,1.00
2017-12-14T18:52:03.927Z,1.47
2017-12-14T18:54:32.324Z,1.30
2017-12-14T18:57:01.625Z,2.33
2017-12-14T18:59:29.879Z,2.10
2017-12-14T19:01:58.202Z,1.20
2017-12-14T19:04:26.464Z,1.20
2017-12-14T19:06:54.770Z,1.40
2017-12-14T19:09:23.081Z,1.40
2017-12-14T19:11:51.393Z,1.60
2017-12-14T19:14:19.664Z,1.33
2017-12-14T19:16:47.956Z,1.57
2017-12-14T19:19:16.240Z,1.73
2017-12-14T19:21:44.592Z,1.47
2017-12-14T19:24:12.843Z,1.55
2017-12-14T19:26:41.132Z,1.60
2017-12-14T19:29:09.426Z,2.00
2017-12-14T19:31:37.671Z,1.60
2017-12-14T19:34:06.063Z,1.93
2017-12-14T19:36:35.187Z,1.57
2017-12-14T19:39:04.443Z,1.70
2017-12-14T19:41:32.732Z,1.70
2017-12-14T19:44:01.023Z,1.80
2017-12-14T19:46:29.317Z,1.83
2017-12-14T19:48:58.584Z,1.90
2017-12-14T19:51:26.859Z,1.80
2017-12-14T19:53:55.162Z,3.30
2017-12-14T19:56:23.401Z,1.90
2017-12-14T19:58:51.687Z,2.17
2017-12-14T20:01:19.985Z,2.42
2017-12-14T20:03:48.239Z,2.10
2017-12-14T20:06:16.513Z,4.97
2017-12-14T20:08:44.798Z,2.70
2017-12-14T20:11:13.369Z,2.35
2017-12-14T20:13:42.297Z,2.53
2017-12-14T20:16:10.628Z,2.20
2017-12-14T20:18:38.918Z,2.70
2017-12-14T20:21:07.295Z,2.20
2017-12-14T20:23:36.455Z,2.80
2017-12-14T20:26:05.282Z,2.13
2017-12-14T20:28:33.560Z,2.00
2017-12-14T20:31:01.826Z,2.27
2017-12-14T20:33:30.124Z,2.77
2017-12-14T20:35:58.388Z,2.20
2017-12-14T20:38:26.679Z,1.70
2017-12-14T20:40:54.941Z,2.00
2017-12-14T20:43:23.225Z,1.70
2017-12-14T20:45:51.477Z,1.90
2017-12-14T20:48:19.783Z,1.75
2017-12-14T20:50:48.031Z,2.50
2017-12-14T20:53:16.323Z,1.60
2017-12-14T20:55:44.580Z,1.30
2017-12-14T20:58:13.077Z,1.50
2017-12-14T21:00:41.997Z,1.40
2017-12-14T21:03:10.264Z,1.60
2017-12-14T21:05:38.536Z,1.90
2017-12-14T21:08:06.874Z,1.40
2017-12-14T21:10:35.175Z,1.43
2017-12-14T21:13:04.455Z,1.34
2017-12-14T21:15:32.747Z,1.73
2017-12-14T21:18:01.019Z,1.50
2017-12-14T21:20:29.315Z,1.00
2017-12-14T21:22:57.586Z,1.17
2017-12-14T21:25:25.868Z,1.70
2017-12-14T21:27:54.141Z,1.20
2017-12-14T21:30:22.421Z,1.30
2017-12-14T21:32:50.701Z,1.50
2017-12-14T21:35:18.985Z,1.30
2017-12-14T21:37:48.143Z,2.50
2017-12-14T21:40:16.431Z,1.30
2017-12-14T21:42:44.697Z,1.67
2017-12-14T21:45:12.984Z,1.30
2017-12-14T21:47:41.279Z,1.80
2017-12-14T21:50:09.588Z,1.60
2017-12-14T21:52:37.915Z,1.40
2017-12-14T21:55:06.213Z,1.10
2017-12-14T21:57:34.756Z,1.63
2017-12-14T22:00:03.091Z,1.30
2017-12-14T22:02:31.380Z,1.50
2017-12-14T22:04:59.635Z,1.10
2017-12-14T22:07:27.931Z,1.40
2017-12-14T22:09:56.189Z,1.30
2017-12-14T22:12:24.475Z,1.40
2017-12-14T22:14:52.727Z,1.50
2017-12-14T22:17:21.069Z,1.30
2017-12-14T22:19:49.394Z,1.80
2017-12-14T22:22:17.664Z,1.35
2017-12-14T22:24:45.981Z,1.20
2017-12-14T22:27:14.216Z,1.40
2017-12-14T22:29:42.478Z,1.60
2017-12-14T22:32:10.747Z,1.80
2017-12-14T22:34:39.042Z,1.17
2017-12-14T22:37:07.304Z,1.40
2017-12-14T22:39:35.618Z,1.40
2017-12-14T22:42:03.872Z,1.60
2017-12-14T22:44:32.152Z,1.63
2017-12-14T22:47:00.415Z,1.40
2017-12-14T22:49:28.709Z,1.40
2017-12-14T22:51:56.983Z,1.50
2017-12-14T22:54:25.260Z,1.50
2017-12-14T22:56:53.564Z,1.80
2017-12-14T22:59:21.823Z,1.70
2017-12-14T23:01:50.119Z,1.20
2017-12-14T23:04:18.372Z,1.17
2017-12-14T23:06:46.687Z,1.33
2017-12-14T23:09:14.955Z,1.30
2017-12-14T23:11:43.240Z,1.03
2017-12-14T23:14:11.496Z,1.00
2017-12-14T23:16:39.775Z,1.20
2017-12-14T23:19:08.043Z,0.97
2017-12-14T23:21:37.132Z,1.35
2017-12-14T23:24:06.222Z,1.33
2017-12-14T23:26:34.500Z,1.50
2017-12-14T23:29:02.780Z,1.70
2017-12-14T23:31:31.018Z,1.20
2017-12-14T23:33:59.322Z,1.80
2017-12-14T23:36:27.551Z,1.65
2017-12-14T23:38:55.888Z,1.43
2017-12-14T23:41:24.110Z,1.10
2017-12-14T23:43:52.400Z,1.00
2017-12-14T23:46:20.656Z,1.45
2017-12-14T23:48:48.950Z,1.20
2017-12-14T23:51:17.225Z,1.00
2017-12-14T23:53:45.469Z,1.13
2017-12-14T23:56:13.762Z,1.17
2017-12-14T23:58:42.020Z,1.20
